Map

Track Data

SID SEASON NUMBER BASIN SUBBASIN NAME ISO_TIME NATURE LAT LON WMO_WIND WMO_PRES WMO_AGENCY TRACK_TYPE DIST2LAND LANDFALL IFLAG USA_AGENCY USA_ATCF_ID USA_LAT USA_LON USA_RECORD USA_STATUS USA_WIND USA_PRES USA_SSHS USA_R34_NE USA_R34_SE USA_R34_SW USA_R34_NW USA_R50_NE USA_R50_SE USA_R50_SW USA_R50_NW USA_R64_NE USA_R64_SE USA_R64_SW USA_R64_NW USA_POCI USA_ROCI USA_RMW USA_EYE TOKYO_LAT TOKYO_LON TOKYO_GRADE TOKYO_WIND TOKYO_PRES TOKYO_R50_DIR TOKYO_R50_LONG TOKYO_R50_SHORT TOKYO_R30_DIR TOKYO_R30_LONG TOKYO_R30_SHORT TOKYO_LAND CMA_LAT CMA_LON CMA_CAT CMA_WIND CMA_PRES HKO_LAT HKO_LON HKO_CAT HKO_WIND HKO_PRES NEWDELHI_LAT NEWDELHI_LON NEWDELHI_GRADE NEWDELHI_WIND NEWDELHI_PRES NEWDELHI_CI NEWDELHI_DP NEWDELHI_POCI REUNION_LAT REUNION_LON REUNION_TYPE REUNION_WIND REUNION_PRES REUNION_TNUM REUNION_CI REUNION_RMW REUNION_R34_NE REUNION_R34_SE REUNION_R34_SW REUNION_R34_NW REUNION_R50_NE REUNION_R50_SE REUNION_R50_SW REUNION_R50_NW REUNION_R64_NE REUNION_R64_SE REUNION_R64_SW REUNION_R64_NW BOM_LAT BOM_LON BOM_TYPE BOM_WIND BOM_PRES BOM_TNUM BOM_CI BOM_RMW BOM_R34_NE BOM_R34_SE BOM_R34_SW BOM_R34_NW BOM_R50_NE BOM_R50_SE BOM_R50_SW BOM_R50_NW BOM_R64_NE BOM_R64_SE BOM_R64_SW BOM_R64_NW BOM_ROCI BOM_POCI BOM_EYE BOM_POS_METHOD BOM_PRES_METHOD NADI_LAT NADI_LON NADI_CAT NADI_WIND NADI_PRES WELLINGTON_LAT WELLINGTON_LON WELLINGTON_WIND WELLINGTON_PRES DS824_LAT DS824_LON DS824_STAGE DS824_WIND DS824_PRES TD9636_LAT TD9636_LON TD9636_STAGE TD9636_WIND TD9636_PRES TD9635_LAT TD9635_LON TD9635_WIND TD9635_PRES TD9635_ROCI NEUMANN_LAT NEUMANN_LON NEUMANN_CLASS NEUMANN_WIND NEUMANN_PRES MLC_LAT MLC_LON MLC_CLASS MLC_WIND MLC_PRES USA_GUST BOM_GUST BOM_GUST_PER REUNION_GUST REUNION_GUST_PER USA_SEAHGT USA_SEARAD_NE USA_SEARAD_SE USA_SEARAD_SW USA_SEARAD_NW STORM_SPEED STORM_DIR
1966209N21088 1966 47 NI BB NOT_NAMED 1966-07-27 18:00:00 TS 20.6000 88.4000 main 111 100 O________O____ jtwc_io IO071966 20.6000 88.4000 -1 20.6000 88.4000 TC 4 303
1966209N21088 1966 47 NI BB NOT_NAMED 1966-07-27 21:00:00 TS 20.6975 88.2425 main 100 89 P________P____ IO071966 20.6975 88.2425 -1 20.6975 88.2425 TC 3 305
1966209N21088 1966 47 NI BB NOT_NAMED 1966-07-28 00:00:00 TS 20.8000 88.1000 main 90 80 O________O____ jtwc_io IO071966 20.8000 88.1000 -1 20.8000 88.1000 TC 25 3 311
1966209N21088 1966 47 NI BB NOT_NAMED 1966-07-28 03:00:00 TS 20.9067 87.9867 main 80 73 P________PO___ IO071966 20.9075 87.9850 -1 20.9075 87.9850 TC 25 20.9000 88.0000 1 3 317
1966209N21088 1966 47 NI BB NOT_NAMED 1966-07-28 06:00:00 TS 20.9985 87.8998 main 73 67 O________OP___ jtwc_io IO071966 21.0000 87.9000 -1 21.0000 87.9000 TC 25 20.9925 87.8988 1 2 316
1966209N21088 1966 47 NI BB NOT_NAMED 1966-07-28 09:00:00 TS 21.0576 87.8331 main 67 67 P________PP___ IO071966 21.0500 87.8425 -1 21.0500 87.8425 TC 25 21.0779 87.8080 1 2 316
1966209N21088 1966 47 NI BB NOT_NAMED 1966-07-28 12:00:00 TS 21.1165 87.7794 main 67 54 O________OP___ jtwc_io IO071966 21.1000 87.8000 -1 21.1000 87.8000 TC 25 21.1494 87.7382 1 2 326
1966209N21088 1966 47 NI BB NOT_NAMED 1966-07-28 15:00:00 TS 21.2050 87.7333 main 54 44 P________PO___ IO071966 21.2075 87.7500 -1 21.2075 87.7500 TC 25 21.2000 87.7000 1 2 334
1966209N21088 1966 47 NI BB NOT_NAMED 1966-07-28 18:00:00 TS 21.2761 87.6978 main 44 44 O________OP___ jtwc_io IO071966 21.3000 87.7000 -1 21.3000 87.7000 TC 25 21.2282 87.6934 1 1 327
1966209N21088 1966 47 NI BB NOT_NAMED 1966-07-28 21:00:00 TS 21.2796 87.6837 main 44 39 P________PP___ IO071966 21.2924 87.6874 -1 21.2924 87.6874 TC 25 21.2540 87.6763 1 1 286
1966209N21088 1966 47 NI BB NOT_NAMED 1966-07-29 00:00:00 TS 21.3009 87.5987 main 39 22 O________OP___ jtwc_io IO071966 21.3000 87.6000 -1 21.3000 87.6000 TC 25 21.3028 87.5961 1 3 295
1966209N21088 1966 47 NI BB NOT_NAMED 1966-07-29 03:00:00 TS 21.4082 87.3832 main 22 0 P________PO___ IO071966 21.4123 87.3748 -1 21.4123 87.3748 TC 25 21.4000 87.4000 1 6 298
1966209N21088 1966 47 NI BB NOT_NAMED 1966-07-29 06:00:00 TS 21.5945 87.0077 main 0 0 O________OP___ jtwc_io IO071966 21.6000 87.0000 -1 21.6000 87.0000 TC 25 21.5835 87.0230 1 9 297
1966209N21088 1966 47 NI BB NOT_NAMED 1966-07-29 09:00:00 TS 21.8330 86.4964 main 0 0 P________PP___ IO071966 21.8427 86.4802 -1 21.8427 86.4802 TC 25 21.8135 86.5287 1 11 296
1966209N21088 1966 47 NI BB NOT_NAMED 1966-07-29 12:00:00 TS 22.0872 85.9233 main 0 0 O________OP___ jtwc_io IO071966 22.1000 85.9000 -1 22.1000 85.9000 TC 25 22.0616 85.9698 1 11 295
1966209N21088 1966 47 NI BB NOT_NAMED 1966-07-29 15:00:00 TS 22.3099 85.3949 main 0 0 P________PO___ IO071966 22.3148 85.3923 -1 22.3148 85.3923 TC 25 22.3000 85.4000 1 10 293
1966209N21088 1966 47 NI BB NOT_NAMED 1966-07-29 18:00:00 TS 22.4934 84.9077 main 0 0 O________OP___ jtwc_io IO071966 22.5000 84.9000 -1 22.5000 84.9000 TC 25 22.4802 84.9232 1 10 291
1966209N21088 1966 47 NI BB NOT_NAMED 1966-07-29 21:00:00 TS 22.6493 84.4193 main 0 0 P________PP___ IO071966 22.6498 84.4072 -1 22.6498 84.4072 TC 25 22.6485 84.4434 1 10 289
1966209N21088 1966 47 NI BB NOT_NAMED 1966-07-30 00:00:00 TS 22.8058 83.9139 main 0 0 O________OP___ jtwc_io IO071966 22.8000 83.9000 -1 22.8000 83.9000 TC 25 22.8175 83.9419 1 10 290
1966209N21088 1966 47 NI BB NOT_NAMED 1966-07-30 03:00:00 TS 22.9898 83.3865 main 0 0 P________PO___ IO071966 22.9846 83.3797 -1 22.9846 83.3797 TC 25 23.0000 83.4000 1 11 291
1966209N21088 1966 47 NI BB NOT_NAMED 1966-07-30 06:00:00 TS 23.2095 82.7738 main 0 0 O________OP___ jtwc_io IO071966 23.2000 82.8000 -1 23.2000 82.8000 TC 25 23.2285 82.7213 1 13 291
1966209N21088 1966 47 NI BB NOT_NAMED 1966-07-30 09:00:00 TS 23.4561 82.0658 main 0 0 P________PP___ IO071966 23.4503 82.0927 -1 23.4503 82.0927 TC 25 23.4675 82.0119 1 14 291
1966209N21088 1966 47 NI BB NOT_NAMED 1966-07-30 12:00:00 TS 23.6991 81.3821 main 0 0 O________OP___ jtwc_io IO071966 23.7000 81.4000 -1 23.7000 81.4000 TC 25 23.6974 81.3463 1 12 292
1966209N21088 1966 47 NI BB NOT_NAMED 1966-07-30 15:00:00 TS 23.9149 80.8166 main 0 0 P________PO___ IO071966 23.9223 80.8249 -1 23.9223 80.8249 TC 25 23.9000 80.8000 1 10 294
1966209N21088 1966 47 NI BB NOT_NAMED 1966-07-30 18:00:00 TS 24.0852 80.4113 main 0 0 O________OP___ jtwc_io IO071966 24.1000 80.4000 -1 24.1000 80.4000 TC 25 24.0629 80.4283 1 7 296
1966209N21088 1966 47 NI BB NOT_NAMED 1966-07-30 21:00:00 TS 24.2070 80.1730 main 0 0 P________PP___ IO071966 24.2175 80.1500 -1 24.2175 80.1500 TC 25 24.1931 80.2037 1 4 302
1966209N21088 1966 47 NI BB NOT_NAMED 1966-07-31 00:00:00 TS 24.3009 80.0386 main 0 0 O________OP___ jtwc_io IO071966 24.3000 80.0000 -1 24.3000 80.0000 TC 25 24.3019 80.0773 1 3 320
1966209N21088 1966 47 NI BB NOT_NAMED 1966-07-31 03:00:00 NR 24.4000 80.0000 main 0 __________O___ IO071966 -1 TC 24.4000 80.0000 1 2 341

About IBTrACS Database

This database is a web-friendly format of International Best Track Archive for Climate Stewardship (IBTrACS), a global best track data archive curated by NOAA dating back to 1842.

Updated: 2021-10-21